sensor_id;sensor_type;location;lat;lon;timestamp;P1;durP1;ratioP1;P2;durP2;ratioP2
42802;SDS011;28447;48.682;9.022;2023-08-17T04:01:01;39.93;;;20.83;;
42802;SDS011;28447;48.682;9.022;2023-08-17T04:03:28;48.03;;;22.47;;
42802;SDS011;28447;48.682;9.022;2023-08-17T04:05:53;44.87;;;23.80;;
42802;SDS011;28447;48.682;9.022;2023-08-17T04:08:19;37.93;;;20.20;;
42802;SDS011;28447;48.682;9.022;2023-08-17T04:10:45;61.83;;;23.10;;
42802;SDS011;28447;48.682;9.022;2023-08-17T04:13:10;50.10;;;21.57;;
42802;SDS011;28447;48.682;9.022;2023-08-17T04:15:36;50.43;;;22.60;;
42802;SDS011;28447;48.682;9.022;2023-08-17T04:18:01;47.17;;;23.33;;
42802;SDS011;28447;48.682;9.022;2023-08-17T04:20:27;47.03;;;22.70;;
42802;SDS011;28447;48.682;9.022;2023-08-17T04:22:53;54.90;;;23.53;;
42802;SDS011;28447;48.682;9.022;2023-08-17T04:25:19;48.93;;;21.80;;
42802;SDS011;28447;48.682;9.022;2023-08-17T04:27:44;52.57;;;23.37;;
42802;SDS011;28447;48.682;9.022;2023-08-17T04:30:10;54.67;;;23.93;;
42802;SDS011;28447;48.682;9.022;2023-08-17T04:32:37;52.57;;;23.97;;
42802;SDS011;28447;48.682;9.022;2023-08-17T04:35:02;51.07;;;24.10;;
42802;SDS011;28447;48.682;9.022;2023-08-17T04:37:28;48.30;;;22.80;;
42802;SDS011;28447;48.682;9.022;2023-08-17T04:39:54;48.37;;;23.23;;
42802;SDS011;28447;48.682;9.022;2023-08-17T04:42:20;49.43;;;24.07;;
42802;SDS011;28447;48.682;9.022;2023-08-17T04:44:45;48.40;;;24.93;;
42802;SDS011;28447;48.682;9.022;2023-08-17T04:47:11;49.53;;;26.23;;
42802;SDS011;28447;48.682;9.022;2023-08-17T04:49:37;46.93;;;23.87;;
42802;SDS011;28447;48.682;9.022;2023-08-17T04:52:03;51.20;;;23.43;;
42802;SDS011;28447;48.682;9.022;2023-08-17T04:54:29;42.83;;;24.17;;
42802;SDS011;28447;48.682;9.022;2023-08-17T04:56:55;46.40;;;23.80;;
42802;SDS011;28447;48.682;9.022;2023-08-17T04:59:20;89.27;;;26.97;;
42802;SDS011;28447;48.682;9.022;2023-08-17T05:01:46;82.13;;;26.03;;
42802;SDS011;28447;48.682;9.022;2023-08-17T05:04:11;80.30;;;25.53;;
42802;SDS011;28447;48.682;9.022;2023-08-17T05:06:37;51.73;;;25.60;;
42802;SDS011;28447;48.682;9.022;2023-08-17T05:09:03;71.37;;;25.50;;
42802;SDS011;28447;48.682;9.022;2023-08-17T05:11:31;58.90;;;25.33;;
42802;SDS011;28447;48.682;9.022;2023-08-17T05:13:57;63.23;;;25.50;;
42802;SDS011;28447;48.682;9.022;2023-08-17T05:16:23;50.37;;;25.10;;
42802;SDS011;28447;48.682;9.022;2023-08-17T05:18:49;49.63;;;25.80;;
42802;SDS011;28447;48.682;9.022;2023-08-17T05:21:15;49.60;;;25.30;;
42802;SDS011;28447;48.682;9.022;2023-08-17T05:23:40;52.33;;;25.43;;
42802;SDS011;28447;48.682;9.022;2023-08-17T05:26:06;59.10;;;25.50;;
42802;SDS011;28447;48.682;9.022;2023-08-17T05:28:33;54.73;;;26.60;;
42802;SDS011;28447;48.682;9.022;2023-08-17T05:31:05;59.87;;;25.30;;
42802;SDS011;28447;48.682;9.022;2023-08-17T05:33:31;81.23;;;23.87;;
42802;SDS011;28447;48.682;9.022;2023-08-17T05:35:57;53.00;;;27.20;;
42802;SDS011;28447;48.682;9.022;2023-08-17T05:38:23;51.27;;;25.77;;
42802;SDS011;28447;48.682;9.022;2023-08-17T05:40:57;58.13;;;24.83;;
42802;SDS011;28447;48.682;9.022;2023-08-17T05:43:23;46.23;;;25.00;;
42802;SDS011;28447;48.682;9.022;2023-08-17T05:45:49;44.00;;;23.30;;
42802;SDS011;28447;48.682;9.022;2023-08-17T05:48:15;47.07;;;25.70;;
42802;SDS011;28447;48.682;9.022;2023-08-17T05:50:44;49.97;;;24.90;;
42802;SDS011;28447;48.682;9.022;2023-08-17T05:53:10;50.67;;;25.10;;
42802;SDS011;28447;48.682;9.022;2023-08-17T05:55:36;48.97;;;27.30;;
42802;SDS011;28447;48.682;9.022;2023-08-17T05:58:02;44.70;;;25.20;;
42802;SDS011;28447;48.682;9.022;2023-08-17T06:00:29;43.63;;;24.07;;
42802;SDS011;28447;48.682;9.022;2023-08-17T06:02:56;41.60;;;24.70;;
42802;SDS011;28447;48.682;9.022;2023-08-17T06:05:26;44.93;;;23.73;;
42802;SDS011;28447;48.682;9.022;2023-08-17T06:07:53;39.10;;;22.70;;
42802;SDS011;28447;48.682;9.022;2023-08-17T06:10:19;38.17;;;22.40;;
42802;SDS011;28447;48.682;9.022;2023-08-17T06:12:45;52.17;;;26.90;;
42802;SDS011;28447;48.682;9.022;2023-08-17T06:15:11;47.47;;;27.60;;
42802;SDS011;28447;48.682;9.022;2023-08-17T06:17:38;39.20;;;23.67;;
42802;SDS011;28447;48.682;9.022;2023-08-17T06:20:04;37.97;;;23.33;;
42802;SDS011;28447;48.682;9.022;2023-08-17T06:22:30;38.97;;;23.37;;
42802;SDS011;28447;48.682;9.022;2023-08-17T06:24:56;36.87;;;22.50;;
42802;SDS011;28447;48.682;9.022;2023-08-17T06:27:28;31.67;;;20.50;;
42802;SDS011;28447;48.682;9.022;2023-08-17T06:29:54;38.00;;;23.87;;
42802;SDS011;28447;48.682;9.022;2023-08-17T06:32:20;32.17;;;19.53;;
42802;SDS011;28447;48.682;9.022;2023-08-17T06:34:45;32.03;;;20.90;;
42802;SDS011;28447;48.682;9.022;2023-08-17T06:37:11;27.87;;;18.83;;
42802;SDS011;28447;48.682;9.022;2023-08-17T06:39:37;30.10;;;19.73;;
42802;SDS011;28447;48.682;9.022;2023-08-17T06:42:02;26.80;;;18.50;;
42802;SDS011;28447;48.682;9.022;2023-08-17T06:44:28;28.07;;;18.77;;
42802;SDS011;28447;48.682;9.022;2023-08-17T06:46:55;26.40;;;19.47;;
42802;SDS011;28447;48.682;9.022;2023-08-17T06:49:23;28.60;;;18.87;;
42802;SDS011;28447;48.682;9.022;2023-08-17T06:51:49;32.47;;;18.40;;
42802;SDS011;28447;48.682;9.022;2023-08-17T06:54:15;33.80;;;23.13;;
42802;SDS011;28447;48.682;9.022;2023-08-17T06:56:41;29.70;;;21.03;;
42802;SDS011;28447;48.682;9.022;2023-08-17T06:59:06;32.20;;;20.00;;
42802;SDS011;28447;48.682;9.022;2023-08-17T07:01:32;21.77;;;16.43;;
42802;SDS011;28447;48.682;9.022;2023-08-17T07:03:58;25.70;;;18.07;;
42802;SDS011;28447;48.682;9.022;2023-08-17T07:06:24;27.03;;;18.43;;
42802;SDS011;28447;48.682;9.022;2023-08-17T07:08:50;27.80;;;17.50;;
42802;SDS011;28447;48.682;9.022;2023-08-17T07:11:17;25.97;;;19.50;;
42802;SDS011;28447;48.682;9.022;2023-08-17T07:13:43;25.47;;;17.27;;
42802;SDS011;28447;48.682;9.022;2023-08-17T07:16:09;22.50;;;17.70;;
42802;SDS011;28447;48.682;9.022;2023-08-17T07:18:34;26.27;;;19.80;;
42802;SDS011;28447;48.682;9.022;2023-08-17T07:21:00;19.80;;;15.40;;
42802;SDS011;28447;48.682;9.022;2023-08-17T07:23:25;19.80;;;15.00;;
42802;SDS011;28447;48.682;9.022;2023-08-17T07:25:51;17.37;;;14.57;;
42802;SDS011;28447;48.682;9.022;2023-08-17T07:28:17;25.67;;;20.53;;
42802;SDS011;28447;48.682;9.022;2023-08-17T07:30:42;14.70;;;13.10;;
42802;SDS011;28447;48.682;9.022;2023-08-17T07:33:08;20.87;;;18.07;;
42802;SDS011;28447;48.682;9.022;2023-08-17T07:35:33;17.40;;;15.17;;
42802;SDS011;28447;48.682;9.022;2023-08-17T07:37:59;13.53;;;11.40;;
42802;SDS011;28447;48.682;9.022;2023-08-17T07:40:25;12.80;;;11.20;;
42802;SDS011;28447;48.682;9.022;2023-08-17T07:42:50;17.10;;;14.60;;
42802;SDS011;28447;48.682;9.022;2023-08-17T07:45:16;14.53;;;12.60;;
42802;SDS011;28447;48.682;9.022;2023-08-17T07:47:43;15.10;;;12.50;;
42802;SDS011;28447;48.682;9.022;2023-08-17T07:50:09;14.20;;;10.60;;
42802;SDS011;28447;48.682;9.022;2023-08-17T07:52:35;11.53;;;10.33;;
42802;SDS011;28447;48.682;9.022;2023-08-17T07:55:01;11.63;;;10.47;;
42802;SDS011;28447;48.682;9.022;2023-08-17T07:57:28;14.00;;;11.40;;
42802;SDS011;28447;48.682;9.022;2023-08-17T07:59:54;15.43;;;12.07;;
42802;SDS011;28447;48.682;9.022;2023-08-17T08:02:19;11.40;;;9.60;;
42802;SDS011;28447;48.682;9.022;2023-08-17T08:04:45;11.40;;;10.30;;
42802;SDS011;28447;48.682;9.022;2023-08-17T08:07:11;12.83;;;8.90;;
42802;SDS011;28447;48.682;9.022;2023-08-17T08:09:36;11.23;;;10.10;;
42802;SDS011;28447;48.682;9.022;2023-08-17T08:12:02;10.63;;;9.60;;
42802;SDS011;28447;48.682;9.022;2023-08-17T08:14:28;11.27;;;10.07;;
42802;SDS011;28447;48.682;9.022;2023-08-17T08:16:54;11.53;;;10.20;;
42802;SDS011;28447;48.682;9.022;2023-08-17T08:19:20;11.00;;;9.90;;
42802;SDS011;28447;48.682;9.022;2023-08-17T08:21:45;9.70;;;8.73;;
42802;SDS011;28447;48.682;9.022;2023-08-17T08:24:11;10.37;;;9.27;;
42802;SDS011;28447;48.682;9.022;2023-08-17T08:26:37;9.35;;;8.45;;
42802;SDS011;28447;48.682;9.022;2023-08-17T08:29:02;9.93;;;8.93;;
42802;SDS011;28447;48.682;9.022;2023-08-17T08:31:28;10.13;;;8.52;;
42802;SDS011;28447;48.682;9.022;2023-08-17T08:33:54;10.57;;;9.27;;
42802;SDS011;28447;48.682;9.022;2023-08-17T08:36:21;10.10;;;9.10;;
42802;SDS011;28447;48.682;9.022;2023-08-17T08:38:46;10.33;;;9.23;;
42802;SDS011;28447;48.682;9.022;2023-08-17T08:41:12;10.53;;;8.93;;
42802;SDS011;28447;48.682;9.022;2023-08-17T08:43:38;8.30;;;7.50;;
42802;SDS011;28447;48.682;9.022;2023-08-17T08:46:05;8.90;;;8.10;;
42802;SDS011;28447;48.682;9.022;2023-08-17T08:48:31;8.40;;;7.60;;
42802;SDS011;28447;48.682;9.022;2023-08-17T08:50:59;8.27;;;7.47;;
42802;SDS011;28447;48.682;9.022;2023-08-17T08:53:47;9.53;;;8.63;;
42802;SDS011;28447;48.682;9.022;2023-08-17T08:56:12;9.97;;;8.70;;
42802;SDS011;28447;48.682;9.022;2023-08-17T08:58:38;10.80;;;9.40;;
42802;SDS011;28447;48.682;9.022;2023-08-17T09:01:05;10.37;;;9.30;;
42802;SDS011;28447;48.682;9.022;2023-08-17T09:03:32;10.63;;;9.50;;
42802;SDS011;28447;48.682;9.022;2023-08-17T09:05:58;10.67;;;9.57;;
42802;SDS011;28447;48.682;9.022;2023-08-17T09:08:26;10.97;;;9.87;;
42802;SDS011;28447;48.682;9.022;2023-08-17T09:10:53;14.53;;;8.93;;
42802;SDS011;28447;48.682;9.022;2023-08-17T09:13:19;10.52;;;8.80;;
42802;SDS011;28447;48.682;9.022;2023-08-17T09:15:45;9.43;;;8.27;;
42802;SDS011;28447;48.682;9.022;2023-08-17T09:18:11;12.02;;;9.13;;
42802;SDS011;28447;48.682;9.022;2023-08-17T09:20:38;10.07;;;8.95;;
42802;SDS011;28447;48.682;9.022;2023-08-17T09:23:05;9.95;;;7.95;;
42802;SDS011;28447;48.682;9.022;2023-08-17T09:25:38;9.25;;;8.38;;
42802;SDS011;28447;48.682;9.022;2023-08-17T09:28:10;8.00;;;7.30;;
42802;SDS011;28447;48.682;9.022;2023-08-17T09:30:59;9.27;;;8.45;;
42802;SDS011;28447;48.682;9.022;2023-08-17T09:33:28;8.13;;;7.30;;
42802;SDS011;28447;48.682;9.022;2023-08-17T09:35:55;7.88;;;7.15;;
42802;SDS011;28447;48.682;9.022;2023-08-17T09:38:21;9.13;;;8.23;;
42802;SDS011;28447;48.682;9.022;2023-08-17T09:40:48;7.38;;;6.68;;
42802;SDS011;28447;48.682;9.022;2023-08-17T09:43:14;7.45;;;6.65;;
42802;SDS011;28447;48.682;9.022;2023-08-17T09:45:41;8.38;;;7.57;;
42802;SDS011;28447;48.682;9.022;2023-08-17T09:48:10;8.80;;;7.93;;
42802;SDS011;28447;48.682;9.022;2023-08-17T09:50:36;8.55;;;6.85;;
42802;SDS011;28447;48.682;9.022;2023-08-17T09:53:02;7.70;;;7.07;;
42802;SDS011;28447;48.682;9.022;2023-08-17T09:55:32;7.25;;;6.65;;
42802;SDS011;28447;48.682;9.022;2023-08-17T09:58:02;6.75;;;6.15;;
42802;SDS011;28447;48.682;9.022;2023-08-17T10:00:28;9.65;;;6.80;;
42802;SDS011;28447;48.682;9.022;2023-08-17T10:02:56;8.57;;;7.72;;
42802;SDS011;28447;48.682;9.022;2023-08-17T10:05:24;8.68;;;7.88;;
42802;SDS011;28447;48.682;9.022;2023-08-17T10:07:51;7.18;;;6.63;;
42802;SDS011;28447;48.682;9.022;2023-08-17T10:10:24;6.88;;;6.28;;
42802;SDS011;28447;48.682;9.022;2023-08-17T10:13:10;8.15;;;7.35;;
42802;SDS011;28447;48.682;9.022;2023-08-17T10:15:37;8.73;;;7.00;;
42802;SDS011;28447;48.682;9.022;2023-08-17T10:18:15;7.20;;;6.60;;
42802;SDS011;28447;48.682;9.022;2023-08-17T10:20:45;7.55;;;6.80;;
42802;SDS011;28447;48.682;9.022;2023-08-17T10:23:17;7.32;;;6.72;;
42802;SDS011;28447;48.682;9.022;2023-08-17T10:25:44;8.73;;;7.82;;
42802;SDS011;28447;48.682;9.022;2023-08-17T10:28:11;8.93;;;8.13;;
42802;SDS011;28447;48.682;9.022;2023-08-17T10:30:38;8.60;;;7.90;;
42802;SDS011;28447;48.682;9.022;2023-08-17T10:33:05;7.38;;;6.70;;
42802;SDS011;28447;48.682;9.022;2023-08-17T10:35:34;7.50;;;6.80;;
42802;SDS011;28447;48.682;9.022;2023-08-17T10:38:02;8.18;;;7.03;;
42802;SDS011;28447;48.682;9.022;2023-08-17T10:40:33;8.27;;;7.20;;
42802;SDS011;28447;48.682;9.022;2023-08-17T10:43:00;7.93;;;7.22;;
42802;SDS011;28447;48.682;9.022;2023-08-17T10:45:29;7.30;;;6.63;;
42802;SDS011;28447;48.682;9.022;2023-08-17T10:47:59;7.22;;;6.63;;
42802;SDS011;28447;48.682;9.022;2023-08-17T10:50:26;11.10;;;7.65;;
42802;SDS011;28447;48.682;9.022;2023-08-17T10:52:53;7.88;;;7.07;;
42802;SDS011;28447;48.682;9.022;2023-08-17T10:55:35;8.25;;;7.45;;
42802;SDS011;28447;48.682;9.022;2023-08-17T10:58:01;8.52;;;7.70;;
42802;SDS011;28447;48.682;9.022;2023-08-17T11:00:31;9.77;;;8.07;;
42802;SDS011;28447;48.682;9.022;2023-08-17T11:02:59;7.22;;;6.63;;
42802;SDS011;28447;48.682;9.022;2023-08-17T11:11:03;7.32;;;6.80;;
42802;SDS011;28447;48.682;9.022;2023-08-17T11:13:29;7.22;;;6.63;;
42802;SDS011;28447;48.682;9.022;2023-08-17T11:15:57;6.43;;;5.93;;
42802;SDS011;28447;48.682;9.022;2023-08-17T11:18:23;8.68;;;6.32;;
42802;SDS011;28447;48.682;9.022;2023-08-17T11:20:49;7.28;;;6.68;;
42802;SDS011;28447;48.682;9.022;2023-08-17T11:23:16;6.70;;;6.10;;
42802;SDS011;28447;48.682;9.022;2023-08-17T11:25:42;7.28;;;6.68;;
42802;SDS011;28447;48.682;9.022;2023-08-17T11:28:08;7.40;;;6.70;;
42802;SDS011;28447;48.682;9.022;2023-08-17T11:30:35;7.63;;;7.03;;
42802;SDS011;28447;48.682;9.022;2023-08-17T11:33:04;7.57;;;6.80;;
42802;SDS011;28447;48.682;9.022;2023-08-17T11:35:30;6.95;;;6.35;;
42802;SDS011;28447;48.682;9.022;2023-08-17T11:37:56;7.22;;;6.53;;
42802;SDS011;28447;48.682;9.022;2023-08-17T11:40:24;7.13;;;6.50;;
42802;SDS011;28447;48.682;9.022;2023-08-17T11:42:51;7.40;;;6.70;;
42802;SDS011;28447;48.682;9.022;2023-08-17T11:45:17;6.50;;;5.90;;
42802;SDS011;28447;48.682;9.022;2023-08-17T11:47:46;7.07;;;6.50;;
42802;SDS011;28447;48.682;9.022;2023-08-17T11:50:12;6.75;;;6.20;;
42802;SDS011;28447;48.682;9.022;2023-08-17T11:52:39;7.53;;;6.88;;
42802;SDS011;28447;48.682;9.022;2023-08-17T11:55:06;7.60;;;6.43;;
42802;SDS011;28447;48.682;9.022;2023-08-17T11:57:33;7.00;;;6.40;;
42802;SDS011;28447;48.682;9.022;2023-08-17T12:00:00;7.82;;;7.18;;
42802;SDS011;28447;48.682;9.022;2023-08-17T12:02:27;9.38;;;8.18;;
42802;SDS011;28447;48.682;9.022;2023-08-17T12:04:54;8.15;;;7.35;;
42802;SDS011;28447;48.682;9.022;2023-08-17T12:07:21;7.40;;;6.80;;
42802;SDS011;28447;48.682;9.022;2023-08-17T12:09:48;8.20;;;7.60;;
42802;SDS011;28447;48.682;9.022;2023-08-17T12:12:21;9.60;;;7.60;;
42802;SDS011;28447;48.682;9.022;2023-08-17T12:14:48;8.52;;;7.72;;
42802;SDS011;28447;48.682;9.022;2023-08-17T12:17:14;8.50;;;7.63;;
42802;SDS011;28447;48.682;9.022;2023-08-17T12:19:43;8.48;;;7.07;;
42802;SDS011;28447;48.682;9.022;2023-08-17T12:22:09;7.90;;;7.20;;
42802;SDS011;28447;48.682;9.022;2023-08-17T12:24:37;9.02;;;8.23;;
42802;SDS011;28447;48.682;9.022;2023-08-17T12:27:04;10.30;;;7.20;;
42802;SDS011;28447;48.682;9.022;2023-08-17T12:29:31;7.90;;;7.20;;
42802;SDS011;28447;48.682;9.022;2023-08-17T12:31:57;8.68;;;7.85;;
42802;SDS011;28447;48.682;9.022;2023-08-17T12:34:24;8.85;;;7.95;;
42802;SDS011;28447;48.682;9.022;2023-08-17T12:36:51;9.60;;;7.70;;
42802;SDS011;28447;48.682;9.022;2023-08-17T12:39:17;8.98;;;7.22;;
42802;SDS011;28447;48.682;9.022;2023-08-17T12:41:43;7.90;;;7.20;;
42802;SDS011;28447;48.682;9.022;2023-08-17T12:44:09;9.00;;;7.97;;
42802;SDS011;28447;48.682;9.022;2023-08-17T12:46:41;7.68;;;6.97;;
42802;SDS011;28447;48.682;9.022;2023-08-17T12:49:07;7.82;;;7.07;;
42802;SDS011;28447;48.682;9.022;2023-08-17T12:51:33;10.93;;;8.80;;
42802;SDS011;28447;48.682;9.022;2023-08-17T12:54:00;12.88;;;9.35;;
42802;SDS011;28447;48.682;9.022;2023-08-17T12:56:26;10.88;;;9.80;;
42802;SDS011;28447;48.682;9.022;2023-08-17T12:58:52;9.30;;;8.40;;
42802;SDS011;28447;48.682;9.022;2023-08-17T13:01:18;11.17;;;9.20;;
42802;SDS011;28447;48.682;9.022;2023-08-17T13:03:44;11.83;;;8.03;;
42802;SDS011;28447;48.682;9.022;2023-08-17T13:06:10;11.83;;;8.27;;
42802;SDS011;28447;48.682;9.022;2023-08-17T13:08:36;15.97;;;9.13;;
42802;SDS011;28447;48.682;9.022;2023-08-17T13:11:02;9.40;;;7.90;;
42802;SDS011;28447;48.682;9.022;2023-08-17T13:13:28;10.07;;;8.00;;
42802;SDS011;28447;48.682;9.022;2023-08-17T13:15:54;9.97;;;7.47;;
42802;SDS011;28447;48.682;9.022;2023-08-17T13:18:20;9.30;;;7.70;;
42802;SDS011;28447;48.682;9.022;2023-08-17T13:20:46;9.43;;;7.27;;
42802;SDS011;28447;48.682;9.022;2023-08-17T13:23:12;12.10;;;7.53;;
42802;SDS011;28447;48.682;9.022;2023-08-17T13:25:38;9.07;;;7.93;;
42802;SDS011;28447;48.682;9.022;2023-08-17T13:28:04;9.87;;;7.50;;
42802;SDS011;28447;48.682;9.022;2023-08-17T13:30:30;8.13;;;7.33;;
42802;SDS011;28447;48.682;9.022;2023-08-17T13:32:57;8.87;;;7.57;;
42802;SDS011;28447;48.682;9.022;2023-08-17T13:35:23;9.27;;;7.83;;
42802;SDS011;28447;48.682;9.022;2023-08-17T13:37:52;8.60;;;7.73;;
42802;SDS011;28447;48.682;9.022;2023-08-17T13:40:22;10.57;;;8.33;;
42802;SDS011;28447;48.682;9.022;2023-08-17T13:42:48;9.73;;;7.23;;
42802;SDS011;28447;48.682;9.022;2023-08-17T13:45:14;8.80;;;7.83;;
42802;SDS011;28447;48.682;9.022;2023-08-17T13:47:40;8.87;;;7.97;;
42802;SDS011;28447;48.682;9.022;2023-08-17T13:50:07;10.87;;;8.97;;
42802;SDS011;28447;48.682;9.022;2023-08-17T13:52:33;10.50;;;9.37;;
42802;SDS011;28447;48.682;9.022;2023-08-17T13:54:59;11.23;;;10.13;;
42802;SDS011;28447;48.682;9.022;2023-08-17T13:57:25;14.10;;;10.73;;
42802;SDS011;28447;48.682;9.022;2023-08-17T13:59:51;16.97;;;10.20;;
42802;SDS011;28447;48.682;9.022;2023-08-17T14:02:18;12.67;;;11.47;;
42802;SDS011;28447;48.682;9.022;2023-08-17T14:04:44;13.40;;;10.30;;
42802;SDS011;28447;48.682;9.022;2023-08-17T14:07:10;13.37;;;10.60;;
42802;SDS011;28447;48.682;9.022;2023-08-17T14:09:36;12.03;;;10.40;;
42802;SDS011;28447;48.682;9.022;2023-08-17T14:12:02;12.73;;;10.70;;
42802;SDS011;28447;48.682;9.022;2023-08-17T14:14:29;16.13;;;11.77;;
42802;SDS011;28447;48.682;9.022;2023-08-17T14:16:55;14.40;;;11.70;;
42802;SDS011;28447;48.682;9.022;2023-08-17T14:19:22;13.53;;;12.17;;
42802;SDS011;28447;48.682;9.022;2023-08-17T14:21:48;13.50;;;11.77;;
42802;SDS011;28447;48.682;9.022;2023-08-17T14:24:14;13.80;;;12.40;;
42802;SDS011;28447;48.682;9.022;2023-08-17T14:26:40;17.20;;;9.87;;
42802;SDS011;28447;48.682;9.022;2023-08-17T14:29:06;12.30;;;9.90;;
42802;SDS011;28447;48.682;9.022;2023-08-17T14:31:32;15.73;;;10.60;;
42802;SDS011;28447;48.682;9.022;2023-08-17T14:33:58;14.52;;;13.02;;
42802;SDS011;28447;48.682;9.022;2023-08-17T14:36:24;12.88;;;11.63;;
42802;SDS011;28447;48.682;9.022;2023-08-17T14:38:50;14.30;;;12.38;;
42802;SDS011;28447;48.682;9.022;2023-08-17T14:41:16;14.45;;;13.07;;
42802;SDS011;28447;48.682;9.022;2023-08-17T14:43:42;13.68;;;12.38;;
42802;SDS011;28447;48.682;9.022;2023-08-17T14:46:09;15.55;;;12.02;;
42802;SDS011;28447;48.682;9.022;2023-08-17T14:48:35;12.00;;;10.80;;
42802;SDS011;28447;48.682;9.022;2023-08-17T14:51:02;11.38;;;10.27;;
42802;SDS011;28447;48.682;9.022;2023-08-17T14:53:30;10.68;;;9.68;;
42802;SDS011;28447;48.682;9.022;2023-08-17T14:55:56;9.25;;;8.35;;
42802;SDS011;28447;48.682;9.022;2023-08-17T14:58:22;10.88;;;9.88;;
42802;SDS011;28447;48.682;9.022;2023-08-17T15:00:48;13.32;;;12.07;;
42802;SDS011;28447;48.682;9.022;2023-08-17T15:03:14;12.15;;;10.48;;
42802;SDS011;28447;48.682;9.022;2023-08-17T15:05:40;11.57;;;10.15;;
42802;SDS011;28447;48.682;9.022;2023-08-17T15:08:06;10.70;;;9.70;;
42802;SDS011;28447;48.682;9.022;2023-08-17T15:10:32;14.27;;;10.80;;
42802;SDS011;28447;48.682;9.022;2023-08-17T15:12:59;10.40;;;9.30;;
42802;SDS011;28447;48.682;9.022;2023-08-17T15:15:26;15.27;;;10.30;;
42802;SDS011;28447;48.682;9.022;2023-08-17T15:17:52;12.88;;;10.25;;
42802;SDS011;28447;48.682;9.022;2023-08-17T15:20:18;13.07;;;11.05;;
42802;SDS011;28447;48.682;9.022;2023-08-17T15:22:44;9.60;;;8.70;;
42802;SDS011;28447;48.682;9.022;2023-08-17T15:25:10;10.95;;;9.73;;
42802;SDS011;28447;48.682;9.022;2023-08-17T15:27:37;9.35;;;8.55;;
42802;SDS011;28447;48.682;9.022;2023-08-17T15:30:03;17.27;;;11.02;;
42802;SDS011;28447;48.682;9.022;2023-08-17T15:32:30;11.85;;;8.88;;
42802;SDS011;28447;48.682;9.022;2023-08-17T15:34:56;9.20;;;8.43;;
42802;SDS011;28447;48.682;9.022;2023-08-17T15:37:22;11.80;;;8.10;;
42802;SDS011;28447;48.682;9.022;2023-08-17T15:39:48;8.63;;;7.82;;
42802;SDS011;28447;48.682;9.022;2023-08-17T15:42:14;10.05;;;8.68;;
42802;SDS011;28447;48.682;9.022;2023-08-17T15:44:40;8.80;;;7.90;;
42802;SDS011;28447;48.682;9.022;2023-08-17T15:47:06;9.43;;;8.45;;
42802;SDS011;28447;48.682;9.022;2023-08-17T15:49:32;9.20;;;8.30;;
42802;SDS011;28447;48.682;9.022;2023-08-17T15:51:58;9.60;;;8.60;;
42802;SDS011;28447;48.682;9.022;2023-08-17T15:54:24;8.80;;;7.95;;
42802;SDS011;28447;48.682;9.022;2023-08-17T15:56:50;9.30;;;8.30;;
42802;SDS011;28447;48.682;9.022;2023-08-17T15:59:16;8.40;;;7.68;;
42802;SDS011;28447;48.682;9.022;2023-08-17T16:01:42;9.18;;;8.20;;
42802;SDS011;28447;48.682;9.022;2023-08-17T16:04:08;9.25;;;8.45;;
42802;SDS011;28447;48.682;9.022;2023-08-17T16:06:34;8.23;;;7.50;;
42802;SDS011;28447;48.682;9.022;2023-08-17T16:09:00;8.93;;;8.07;;
42802;SDS011;28447;48.682;9.022;2023-08-17T16:11:27;12.57;;;9.60;;
42802;SDS011;28447;48.682;9.022;2023-08-17T16:13:53;10.75;;;9.75;;
42802;SDS011;28447;48.682;9.022;2023-08-17T16:16:20;12.20;;;9.27;;
42802;SDS011;28447;48.682;9.022;2023-08-17T16:18:46;9.00;;;7.88;;
42802;SDS011;28447;48.682;9.022;2023-08-17T16:21:12;8.70;;;8.00;;
42802;SDS011;28447;48.682;9.022;2023-08-17T16:23:38;8.65;;;7.63;;
42802;SDS011;28447;48.682;9.022;2023-08-17T16:26:07;8.35;;;7.45;;
42802;SDS011;28447;48.682;9.022;2023-08-17T16:28:33;9.05;;;8.23;;
42802;SDS011;28447;48.682;9.022;2023-08-17T16:30:59;9.00;;;8.20;;
42802;SDS011;28447;48.682;9.022;2023-08-17T16:33:25;8.95;;;7.82;;
42802;SDS011;28447;48.682;9.022;2023-08-17T16:35:51;10.32;;;8.68;;
42802;SDS011;28447;48.682;9.022;2023-08-17T16:38:18;8.30;;;7.43;;
42802;SDS011;28447;48.682;9.022;2023-08-17T16:40:44;8.45;;;7.72;;
42802;SDS011;28447;48.682;9.022;2023-08-17T16:43:10;9.55;;;7.55;;
42802;SDS011;28447;48.682;9.022;2023-08-17T16:45:36;8.32;;;7.53;;
42802;SDS011;28447;48.682;9.022;2023-08-17T16:48:01;9.05;;;8.15;;
42802;SDS011;28447;48.682;9.022;2023-08-17T16:50:28;9.57;;;8.68;;
42802;SDS011;28447;48.682;9.022;2023-08-17T16:52:55;8.57;;;7.68;;
42802;SDS011;28447;48.682;9.022;2023-08-17T16:55:21;13.27;;;8.18;;
42802;SDS011;28447;48.682;9.022;2023-08-17T16:57:47;9.55;;;8.57;;
42802;SDS011;28447;48.682;9.022;2023-08-17T17:00:12;12.63;;;10.07;;
42802;SDS011;28447;48.682;9.022;2023-08-17T17:02:38;10.30;;;9.25;;
42802;SDS011;28447;48.682;9.022;2023-08-17T17:05:04;10.52;;;9.52;;
42802;SDS011;28447;48.682;9.022;2023-08-17T17:07:31;11.68;;;10.48;;
42802;SDS011;28447;48.682;9.022;2023-08-17T17:09:57;11.32;;;10.23;;
42802;SDS011;28447;48.682;9.022;2023-08-17T17:12:23;22.45;;;11.00;;
42802;SDS011;28447;48.682;9.022;2023-08-17T17:14:54;10.52;;;9.10;;
42802;SDS011;28447;48.682;9.022;2023-08-17T17:17:20;10.77;;;9.63;;
42802;SDS011;28447;48.682;9.022;2023-08-17T17:19:46;11.07;;;9.93;;
42802;SDS011;28447;48.682;9.022;2023-08-17T17:22:11;13.50;;;10.00;;
42802;SDS011;28447;48.682;9.022;2023-08-17T17:24:37;10.90;;;9.82;;
42802;SDS011;28447;48.682;9.022;2023-08-17T17:27:03;11.18;;;10.00;;
42802;SDS011;28447;48.682;9.022;2023-08-17T17:29:28;11.98;;;10.15;;
42802;SDS011;28447;48.682;9.022;2023-08-17T17:31:54;10.90;;;10.00;;
42802;SDS011;28447;48.682;9.022;2023-08-17T17:34:20;10.82;;;9.77;;
42802;SDS011;28447;48.682;9.022;2023-08-17T17:36:46;15.73;;;10.63;;
42802;SDS011;28447;48.682;9.022;2023-08-17T17:39:14;11.57;;;10.48;;
42802;SDS011;28447;48.682;9.022;2023-08-17T17:41:40;20.15;;;10.88;;
42802;SDS011;28447;48.682;9.022;2023-08-17T17:44:06;20.92;;;13.63;;
42802;SDS011;28447;48.682;9.022;2023-08-17T17:46:32;13.30;;;11.80;;
42802;SDS011;28447;48.682;9.022;2023-08-17T17:48:58;17.90;;;11.68;;
42802;SDS011;28447;48.682;9.022;2023-08-17T17:51:25;12.70;;;10.82;;
42802;SDS011;28447;48.682;9.022;2023-08-17T17:53:51;12.60;;;10.00;;
42802;SDS011;28447;48.682;9.022;2023-08-17T17:56:17;13.77;;;10.88;;
42802;SDS011;28447;48.682;9.022;2023-08-17T17:58:44;11.52;;;10.25;;
42802;SDS011;28447;48.682;9.022;2023-08-17T18:01:11;11.73;;;10.52;;
42802;SDS011;28447;48.682;9.022;2023-08-17T18:03:37;11.50;;;10.45;;
42802;SDS011;28447;48.682;9.022;2023-08-17T18:06:03;12.20;;;11.10;;
42802;SDS011;28447;48.682;9.022;2023-08-17T18:08:29;12.20;;;10.50;;
42802;SDS011;28447;48.682;9.022;2023-08-17T18:10:55;12.75;;;11.35;;
42802;SDS011;28447;48.682;9.022;2023-08-17T18:13:21;12.43;;;11.13;;
42802;SDS011;28447;48.682;9.022;2023-08-17T18:15:48;11.27;;;10.07;;
42802;SDS011;28447;48.682;9.022;2023-08-17T18:18:14;13.15;;;10.32;;
42802;SDS011;28447;48.682;9.022;2023-08-17T18:20:39;11.07;;;10.07;;
42802;SDS011;28447;48.682;9.022;2023-08-17T18:23:05;11.57;;;10.50;;
42802;SDS011;28447;48.682;9.022;2023-08-17T18:25:30;12.55;;;11.25;;
42802;SDS011;28447;48.682;9.022;2023-08-17T18:27:57;11.50;;;10.40;;
42802;SDS011;28447;48.682;9.022;2023-08-17T18:30:22;11.15;;;10.05;;
42802;SDS011;28447;48.682;9.022;2023-08-17T18:32:48;11.40;;;10.32;;
42802;SDS011;28447;48.682;9.022;2023-08-17T18:35:13;11.27;;;9.68;;